sensor_id;sensor_type;location;lat;lon;timestamp;pressure;altitude;pressure_sealevel;temperature;humidity
71966;BME280;59836;52.132;5.442;2023-12-04T00:00:18;101371.06;;;1.43;100.00
71966;BME280;59836;52.132;5.442;2023-12-04T00:02:45;101367.53;;;1.43;100.00
71966;BME280;59836;52.132;5.442;2023-12-04T00:05:11;101365.72;;;1.43;100.00
71966;BME280;59836;52.132;5.442;2023-12-04T00:07:38;101367.38;;;1.44;100.00
71966;BME280;59836;52.132;5.442;2023-12-04T00:10:05;101364.06;;;1.42;100.00
71966;BME280;59836;52.132;5.442;2023-12-04T00:12:32;101359.34;;;1.44;100.00
71966;BME280;59836;52.132;5.442;2023-12-04T00:14:59;101355.66;;;1.45;100.00
71966;BME280;59836;52.132;5.442;2023-12-04T00:17:25;101356.47;;;1.46;100.00
71966;BME280;59836;52.132;5.442;2023-12-04T00:19:52;101352.59;;;1.49;100.00
71966;BME280;59836;52.132;5.442;2023-12-04T00:22:19;101349.28;;;1.46;100.00
71966;BME280;59836;52.132;5.442;2023-12-04T00:24:45;101345.59;;;1.47;100.00
71966;BME280;59836;52.132;5.442;2023-12-04T00:27:12;101347.25;;;1.49;100.00
71966;BME280;59836;52.132;5.442;2023-12-04T00:29:38;101340.25;;;1.47;100.00
71966;BME280;59836;52.132;5.442;2023-12-04T00:32:05;101336.56;;;1.49;100.00
71966;BME280;59836;52.132;5.442;2023-12-04T00:34:32;101334.91;;;1.47;100.00
71966;BME280;59836;52.132;5.442;2023-12-04T00:36:59;101333.88;;;1.49;100.00
71966;BME280;59836;52.132;5.442;2023-12-04T00:39:26;101333.25;;;1.46;100.00
71966;BME280;59836;52.132;5.442;2023-12-04T00:41:53;101318.41;;;1.44;100.00
71966;BME280;59836;52.132;5.442;2023-12-04T00:44:20;101314.47;;;1.40;100.00
71966;BME280;59836;52.132;5.442;2023-12-04T00:46:46;101328.47;;;1.42;100.00
71966;BME280;59836;52.132;5.442;2023-12-04T00:49:13;101321.09;;;1.44;100.00
71966;BME280;59836;52.132;5.442;2023-12-04T00:51:40;101324.59;;;1.44;100.00
71966;BME280;59836;52.132;5.442;2023-12-04T00:54:06;101319.88;;;1.46;100.00
71966;BME280;59836;52.132;5.442;2023-12-04T00:56:33;101316.38;;;1.46;100.00
71966;BME280;59836;52.132;5.442;2023-12-04T00:59:02;101304.66;;;1.47;100.00
71966;BME280;59836;52.132;5.442;2023-12-04T01:01:30;101303.84;;;1.46;100.00
71966;BME280;59836;52.132;5.442;2023-12-04T01:03:56;101302.00;;;1.47;100.00
71966;BME280;59836;52.132;5.442;2023-12-04T01:06:23;101303.84;;;1.46;100.00
71966;BME280;59836;52.132;5.442;2023-12-04T01:08:51;101309.19;;;1.46;100.00
71966;BME280;59836;52.132;5.442;2023-12-04T01:11:18;101300.16;;;1.47;100.00
71966;BME280;59836;52.132;5.442;2023-12-04T01:13:46;101303.44;;;1.50;100.00
71966;BME280;59836;52.132;5.442;2023-12-04T01:16:13;101305.09;;;1.51;100.00
71966;BME280;59836;52.132;5.442;2023-12-04T01:18:41;101301.81;;;1.49;100.00
71966;BME280;59836;52.132;5.442;2023-12-04T01:21:10;101296.47;;;1.49;100.00
71966;BME280;59836;52.132;5.442;2023-12-04T01:23:45;101298.91;;;1.50;100.00
71966;BME280;59836;52.132;5.442;2023-12-04T01:26:18;101292.75;;;1.50;100.00
71966;BME280;59836;52.132;5.442;2023-12-04T01:28:45;101282.88;;;1.50;100.00
71966;BME280;59836;52.132;5.442;2023-12-04T01:31:11;101283.50;;;1.45;100.00
71966;BME280;59836;52.132;5.442;2023-12-04T01:33:38;101281.84;;;1.44;100.00
71966;BME280;59836;52.132;5.442;2023-12-04T01:36:05;101284.50;;;1.44;100.00
71966;BME280;59836;52.132;5.442;2023-12-04T01:38:32;101279.78;;;1.46;100.00
71966;BME280;59836;52.132;5.442;2023-12-04T01:40:58;101272.78;;;1.45;100.00
71966;BME280;59836;52.132;5.442;2023-12-04T01:43:25;101276.28;;;1.46;100.00
71966;BME280;59836;52.132;5.442;2023-12-04T01:45:52;101273.44;;;1.47;100.00
71966;BME280;59836;52.132;5.442;2023-12-04T01:48:19;101266.44;;;1.46;100.00
71966;BME280;59836;52.132;5.442;2023-12-04T01:50:46;101265.81;;;1.44;100.00
71966;BME280;59836;52.132;5.442;2023-12-04T01:53:12;101268.47;;;1.44;100.00
71966;BME280;59836;52.132;5.442;2023-12-04T01:55:40;101263.13;;;1.44;100.00
71966;BME280;59836;52.132;5.442;2023-12-04T01:58:07;101255.13;;;1.44;100.00
71966;BME280;59836;52.132;5.442;2023-12-04T02:00:34;101256.31;;;1.42;100.00
71966;BME280;59836;52.132;5.442;2023-12-04T02:03:01;101254.47;;;1.42;100.00
71966;BME280;59836;52.132;5.442;2023-12-04T02:05:28;101252.84;;;1.41;100.00
71966;BME280;59836;52.132;5.442;2023-12-04T02:07:56;101246.25;;;1.44;100.00
71966;BME280;59836;52.132;5.442;2023-12-04T02:10:22;101242.78;;;1.43;100.00
71966;BME280;59836;52.132;5.442;2023-12-04T02:12:50;101237.22;;;1.45;100.00
71966;BME280;59836;52.132;5.442;2023-12-04T02:15:17;101237.44;;;1.43;100.00
71966;BME280;59836;52.132;5.442;2023-12-04T02:17:44;101233.09;;;1.42;100.00
71966;BME280;59836;52.132;5.442;2023-12-04T02:20:14;101226.91;;;1.42;100.00
71966;BME280;59836;52.132;5.442;2023-12-04T02:22:41;101224.47;;;1.40;100.00
71966;BME280;59836;52.132;5.442;2023-12-04T02:25:09;101224.47;;;1.40;100.00
71966;BME280;59836;52.132;5.442;2023-12-04T02:27:56;101233.72;;;1.44;100.00
71966;BME280;59836;52.132;5.442;2023-12-04T02:30:26;101228.38;;;1.44;100.00
71966;BME280;59836;52.132;5.442;2023-12-04T02:32:57;101224.06;;;1.43;100.00
71966;BME280;59836;52.132;5.442;2023-12-04T02:35:27;101221.19;;;1.45;100.00
71966;BME280;59836;52.132;5.442;2023-12-04T02:37:56;101212.34;;;1.44;100.00
71966;BME280;59836;52.132;5.442;2023-12-04T02:40:25;101210.47;;;1.45;100.00
71966;BME280;59836;52.132;5.442;2023-12-04T02:42:53;101198.97;;;1.44;100.00
71966;BME280;59836;52.132;5.442;2023-12-04T02:45:20;101195.28;;;1.45;100.00
71966;BME280;59836;52.132;5.442;2023-12-04T02:47:47;101197.97;;;1.45;100.00
71966;BME280;59836;52.132;5.442;2023-12-04T02:50:13;101185.00;;;1.42;100.00
71966;BME280;59836;52.132;5.442;2023-12-04T02:52:42;101180.47;;;1.43;100.00
71966;BME280;59836;52.132;5.442;2023-12-04T02:55:08;101176.75;;;1.44;100.00
71966;BME280;59836;52.132;5.442;2023-12-04T02:57:43;101179.25;;;1.45;100.00
71966;BME280;59836;52.132;5.442;2023-12-04T03:00:10;101175.56;;;1.46;100.00
71966;BME280;59836;52.132;5.442;2023-12-04T03:02:38;101171.03;;;1.47;100.00
71966;BME280;59836;52.132;5.442;2023-12-04T03:05:05;101159.50;;;1.46;100.00
71966;BME280;59836;52.132;5.442;2023-12-04T03:07:31;101170.22;;;1.46;100.00
71966;BME280;59836;52.132;5.442;2023-12-04T03:10:09;101162.38;;;1.45;100.00
71966;BME280;59836;52.132;5.442;2023-12-04T03:12:36;101156.00;;;1.46;100.00
71966;BME280;59836;52.132;5.442;2023-12-04T03:15:03;101156.22;;;1.44;100.00
71966;BME280;59836;52.132;5.442;2023-12-04T03:17:31;101150.88;;;1.44;100.00
71966;BME280;59836;52.132;5.442;2023-12-04T03:19:58;101142.22;;;1.42;100.00
71966;BME280;59836;52.132;5.442;2023-12-04T03:22:24;101141.22;;;1.43;100.00
71966;BME280;59836;52.132;5.442;2023-12-04T03:24:51;101139.16;;;1.45;100.00
71966;BME280;59836;52.132;5.442;2023-12-04T03:27:17;101142.03;;;1.44;100.00
71966;BME280;59836;52.132;5.442;2023-12-04T03:29:44;101132.97;;;1.45;100.00
71966;BME280;59836;52.132;5.442;2023-12-04T03:32:11;101132.56;;;1.41;100.00
71966;BME280;59836;52.132;5.442;2023-12-04T03:34:37;101126.19;;;1.42;100.00
71966;BME280;59836;52.132;5.442;2023-12-04T03:37:05;101122.50;;;1.43;100.00
71966;BME280;59836;52.132;5.442;2023-12-04T03:39:32;101118.81;;;1.44;100.00
71966;BME280;59836;52.132;5.442;2023-12-04T03:41:58;101114.47;;;1.43;100.00
71966;BME280;59836;52.132;5.442;2023-12-04T03:44:29;101115.50;;;1.42;100.00
71966;BME280;59836;52.132;5.442;2023-12-04T03:46:56;101111.81;;;1.43;100.00
71966;BME280;59836;52.132;5.442;2023-12-04T03:49:23;101110.78;;;1.44;100.00
71966;BME280;59836;52.132;5.442;2023-12-04T03:51:50;101103.56;;;1.45;100.00
71966;BME280;59836;52.132;5.442;2023-12-04T03:54:17;101099.06;;;1.45;100.00
71966;BME280;59836;52.132;5.442;2023-12-04T03:56:43;101103.78;;;1.43;100.00
71966;BME280;59836;52.132;5.442;2023-12-04T03:59:10;101093.09;;;1.43;100.00
71966;BME280;59836;52.132;5.442;2023-12-04T04:01:37;101090.44;;;1.43;100.00
71966;BME280;59836;52.132;5.442;2023-12-04T04:04:03;101082.59;;;1.42;100.00
71966;BME280;59836;52.132;5.442;2023-12-04T04:06:30;101083.84;;;1.39;100.00
71966;BME280;59836;52.132;5.442;2023-12-04T04:08:58;101089.19;;;1.39;100.00
71966;BME280;59836;52.132;5.442;2023-12-04T04:11:24;101080.94;;;1.41;100.00
71966;BME280;59836;52.132;5.442;2023-12-04T04:13:51;101081.78;;;1.41;100.00
71966;BME280;59836;52.132;5.442;2023-12-04T04:16:17;101078.09;;;1.42;100.00
71966;BME280;59836;52.132;5.442;2023-12-04T04:18:44;101076.44;;;1.41;100.00
71966;BME280;59836;52.132;5.442;2023-12-04T04:21:11;101073.97;;;1.40;100.00
71966;BME280;59836;52.132;5.442;2023-12-04T04:23:37;101075.19;;;1.37;100.00
71966;BME280;59836;52.132;5.442;2023-12-04T04:26:04;101060.81;;;1.38;100.00
71966;BME280;59836;52.132;5.442;2023-12-04T04:28:31;101058.75;;;1.40;100.00
71966;BME280;59836;52.132;5.442;2023-12-04T04:30:57;101058.75;;;1.40;100.00
71966;BME280;59836;52.132;5.442;2023-12-04T04:33:24;101052.19;;;1.43;100.00
71966;BME280;59836;52.132;5.442;2023-12-04T04:35:50;101059.16;;;1.44;100.00
71966;BME280;59836;52.132;5.442;2023-12-04T04:38:17;101045.00;;;1.43;100.00
71966;BME280;59836;52.132;5.442;2023-12-04T04:40:44;101050.53;;;1.42;100.00
71966;BME280;59836;52.132;5.442;2023-12-04T04:43:11;101053.41;;;1.40;100.00
71966;BME280;59836;52.132;5.442;2023-12-04T04:45:37;101049.72;;;1.41;100.00
71966;BME280;59836;52.132;5.442;2023-12-04T04:48:04;101050.53;;;1.42;100.00
71966;BME280;59836;52.132;5.442;2023-12-04T04:50:31;101040.47;;;1.44;100.00
71966;BME280;59836;52.132;5.442;2023-12-04T04:52:58;101044.78;;;1.45;100.00
71966;BME280;59836;52.132;5.442;2023-12-04T04:55:24;101041.91;;;1.46;100.00
71966;BME280;59836;52.132;5.442;2023-12-04T04:58:11;101036.56;;;1.46;100.00
71966;BME280;59836;52.132;5.442;2023-12-04T05:00:37;101038.22;;;1.47;100.00
71966;BME280;59836;52.132;5.442;2023-12-04T05:03:04;101039.88;;;1.49;100.00
71966;BME280;59836;52.132;5.442;2023-12-04T05:05:31;101040.28;;;1.45;100.00
71966;BME280;59836;52.132;5.442;2023-12-04T05:07:57;101035.72;;;1.46;100.00
71966;BME280;59836;52.132;5.442;2023-12-04T05:10:24;101038.63;;;1.44;100.00
71966;BME280;59836;52.132;5.442;2023-12-04T05:12:50;101032.84;;;1.41;100.00
71966;BME280;59836;52.132;5.442;2023-12-04T05:15:17;101030.00;;;1.42;100.00
71966;BME280;59836;52.132;5.442;2023-12-04T05:17:43;101030.00;;;1.42;100.00
71966;BME280;59836;52.132;5.442;2023-12-04T05:20:10;101023.81;;;1.42;100.00
71966;BME280;59836;52.132;5.442;2023-12-04T05:22:37;101019.28;;;1.42;100.00
71966;BME280;59836;52.132;5.442;2023-12-04T05:25:04;101016.41;;;1.44;100.00
71966;BME280;59836;52.132;5.442;2023-12-04T05:27:31;101016.41;;;1.44;100.00
71966;BME280;59836;52.132;5.442;2023-12-04T05:29:57;101016.00;;;1.40;100.00
71966;BME280;59836;52.132;5.442;2023-12-04T05:32:24;101016.81;;;1.41;100.00
71966;BME280;59836;52.132;5.442;2023-12-04T05:34:51;101014.38;;;1.39;100.00
71966;BME280;59836;52.132;5.442;2023-12-04T05:37:17;101003.66;;;1.39;100.00
71966;BME280;59836;52.132;5.442;2023-12-04T05:39:44;100998.72;;;1.43;100.00
71966;BME280;59836;52.132;5.442;2023-12-04T05:42:10;100987.63;;;1.39;100.00
71966;BME280;59836;52.132;5.442;2023-12-04T05:44:37;100991.34;;;1.38;100.00
71966;BME280;59836;52.132;5.442;2023-12-04T05:47:04;100984.75;;;1.41;100.00
71966;BME280;59836;52.132;5.442;2023-12-04T05:49:30;100976.94;;;1.39;100.00
71966;BME280;59836;52.132;5.442;2023-12-04T05:51:57;100975.31;;;1.38;100.00
71966;BME280;59836;52.132;5.442;2023-12-04T05:54:24;100976.94;;;1.39;100.00
71966;BME280;59836;52.132;5.442;2023-12-04T05:56:51;100983.94;;;1.40;100.00
71966;BME280;59836;52.132;5.442;2023-12-04T05:59:17;100979.00;;;1.37;100.00
71966;BME280;59836;52.132;5.442;2023-12-04T06:01:44;100971.78;;;1.38;100.00
71966;BME280;59836;52.132;5.442;2023-12-04T06:04:11;100975.31;;;1.38;100.00
71966;BME280;59836;52.132;5.442;2023-12-04T06:06:37;100976.09;;;1.39;100.00
71966;BME280;59836;52.132;5.442;2023-12-04T06:09:04;100969.97;;;1.38;100.00
71966;BME280;59836;52.132;5.442;2023-12-04T06:11:31;100960.06;;;1.39;100.00
71966;BME280;59836;52.132;5.442;2023-12-04T06:13:58;100969.53;;;1.41;100.00
71966;BME280;59836;52.132;5.442;2023-12-04T06:16:25;100958.84;;;1.41;100.00
71966;BME280;59836;52.132;5.442;2023-12-04T06:18:51;100967.91;;;1.40;100.00
71966;BME280;59836;52.132;5.442;2023-12-04T06:21:19;100967.06;;;1.40;100.00
71966;BME280;59836;52.132;5.442;2023-12-04T06:23:45;100964.19;;;1.41;100.00
71966;BME280;59836;52.132;5.442;2023-12-04T06:26:12;100964.19;;;1.41;100.00
71966;BME280;59836;52.132;5.442;2023-12-04T06:28:39;100966.66;;;1.43;100.00
71966;BME280;59836;52.132;5.442;2023-12-04T06:31:06;100963.78;;;1.44;100.00
71966;BME280;59836;52.132;5.442;2023-12-04T06:33:33;100960.91;;;1.39;100.00
71966;BME280;59836;52.132;5.442;2023-12-04T06:36:01;100946.13;;;1.43;100.00
71966;BME280;59836;52.132;5.442;2023-12-04T06:38:31;100946.53;;;1.40;100.00
71966;BME280;59836;52.132;5.442;2023-12-04T06:41:00;100946.94;;;1.37;100.00
71966;BME280;59836;52.132;5.442;2023-12-04T06:43:27;100937.88;;;1.38;100.00
71966;BME280;59836;52.132;5.442;2023-12-04T06:45:54;100941.59;;;1.37;100.00
71966;BME280;59836;52.132;5.442;2023-12-04T06:48:23;100923.91;;;1.36;100.00
71966;BME280;59836;52.132;5.442;2023-12-04T06:50:50;100924.72;;;1.37;100.00
71966;BME280;59836;52.132;5.442;2023-12-04T06:53:17;100924.72;;;1.37;100.00
71966;BME280;59836;52.132;5.442;2023-12-04T06:55:44;100924.31;;;1.40;100.00
71966;BME280;59836;52.132;5.442;2023-12-04T06:58:10;100923.69;;;1.38;100.00
71966;BME280;59836;52.132;5.442;2023-12-04T07:00:37;100915.06;;;1.36;100.00
71966;BME280;59836;52.132;5.442;2023-12-04T07:03:04;100915.47;;;1.39;100.00
71966;BME280;59836;52.132;5.442;2023-12-04T07:05:32;100901.72;;;1.42;100.00
71966;BME280;59836;52.132;5.442;2023-12-04T07:07:58;100918.78;;;1.41;100.00
71966;BME280;59836;52.132;5.442;2023-12-04T07:10:25;100916.09;;;1.41;100.00
71966;BME280;59836;52.132;5.442;2023-12-04T07:12:51;100903.34;;;1.43;100.00
71966;BME280;59836;52.132;5.442;2023-12-04T07:15:18;100896.97;;;1.44;99.97
71966;BME280;59836;52.132;5.442;2023-12-04T07:17:45;100898.00;;;1.43;100.00
71966;BME280;59836;52.132;5.442;2023-12-04T07:20:12;100890.59;;;1.45;99.95
71966;BME280;59836;52.132;5.442;2023-12-04T07:22:39;100884.44;;;1.45;99.54
71966;BME280;59836;52.132;5.442;2023-12-04T07:25:08;100886.06;;;1.46;99.74
71966;BME280;59836;52.132;5.442;2023-12-04T07:27:35;100880.94;;;1.44;99.42
71966;BME280;59836;52.132;5.442;2023-12-04T07:30:02;100889.78;;;1.45;99.29
71966;BME280;59836;52.132;5.442;2023-12-04T07:32:30;100889.38;;;1.41;99.08
71966;BME280;59836;52.132;5.442;2023-12-04T07:34:59;100889.38;;;1.41;98.73
71966;BME280;59836;52.132;5.442;2023-12-04T07:37:26;100874.56;;;1.39;98.85
71966;BME280;59836;52.132;5.442;2023-12-04T07:39:53;100886.09;;;1.39;99.15
71966;BME280;59836;52.132;5.442;2023-12-04T07:42:19;100886.91;;;1.40;98.85
71966;BME280;59836;52.132;5.442;2023-12-04T07:44:46;100888.53;;;1.41;99.21
71966;BME280;59836;52.132;5.442;2023-12-04T07:47:13;100881.97;;;1.43;99.16
71966;BME280;59836;52.132;5.442;2023-12-04T07:49:40;100883.63;;;1.44;98.76
71966;BME280;59836;52.132;5.442;2023-12-04T07:52:07;100887.72;;;1.47;98.62
71966;BME280;59836;52.132;5.442;2023-12-04T07:54:34;100874.56;;;1.45;98.21
71966;BME280;59836;52.132;5.442;2023-12-04T07:57:01;100875.59;;;1.44;97.97
71966;BME280;59836;52.132;5.442;2023-12-04T07:59:27;100876.22;;;1.46;98.32
71966;BME280;59836;52.132;5.442;2023-12-04T08:01:54;100884.84;;;1.49;98.90
71966;BME280;59836;52.132;5.442;2023-12-04T08:04:20;100878.25;;;1.51;98.49
71966;BME280;59836;52.132;5.442;2023-12-04T08:06:47;100877.44;;;1.51;98.76
71966;BME280;59836;52.132;5.442;2023-12-04T08:09:13;100879.09;;;1.52;98.68
71966;BME280;59836;52.132;5.442;2023-12-04T08:11:40;100878.25;;;1.51;98.06
71966;BME280;59836;52.132;5.442;2023-12-04T08:14:06;100877.03;;;1.54;98.08
71966;BME280;59836;52.132;5.442;2023-12-04T08:16:33;100876.81;;;1.55;97.96
71966;BME280;59836;52.132;5.442;2023-12-04T08:18:59;100884.00;;;1.55;97.86
71966;BME280;59836;52.132;5.442;2023-12-04T08:21:26;100879.69;;;1.54;97.77
71966;BME280;59836;52.132;5.442;2023-12-04T08:23:53;100877.84;;;1.54;97.51
71966;BME280;59836;52.132;5.442;2023-12-04T08:26:23;100885.03;;;1.54;97.25
71966;BME280;59836;52.132;5.442;2023-12-04T08:28:53;100885.66;;;1.56;97.08
71966;BME280;59836;52.132;5.442;2023-12-04T08:31:20;100885.03;;;1.54;96.75
71966;BME280;59836;52.132;5.442;2023-12-04T08:33:46;100882.38;;;1.54;96.77
71966;BME280;59836;52.132;5.442;2023-12-04T08:36:13;100864.69;;;1.53;96.14
71966;BME280;59836;52.132;5.442;2023-12-04T08:38:39;100872.50;;;1.54;96.16
71966;BME280;59836;52.132;5.442;2023-12-04T08:41:06;100869.81;;;1.54;96.10
71966;BME280;59836;52.132;5.442;2023-12-04T08:43:33;100861.78;;;1.54;95.94
71966;BME280;59836;52.132;5.442;2023-12-04T08:45:59;100857.28;;;1.55;95.93
71966;BME280;59836;52.132;5.442;2023-12-04T08:48:27;100858.50;;;1.59;95.77
71966;BME280;59836;52.132;5.442;2023-12-04T08:50:54;100846.97;;;1.58;95.52
71966;BME280;59836;52.132;5.442;2023-12-04T08:53:20;100848.22;;;1.62;95.64
71966;BME280;59836;52.132;5.442;2023-12-04T08:55:47;100848.41;;;1.61;95.08
71966;BME280;59836;52.132;5.442;2023-12-04T08:58:14;100849.00;;;1.63;94.86
71966;BME280;59836;52.132;5.442;2023-12-04T09:00:40;100845.72;;;1.61;94.89
71966;BME280;59836;52.132;5.442;2023-12-04T09:03:10;100846.94;;;1.65;95.31
71966;BME280;59836;52.132;5.442;2023-12-04T09:05:47;100847.19;;;1.64;94.45
71966;BME280;59836;52.132;5.442;2023-12-04T09:08:17;100836.25;;;1.65;94.70
71966;BME280;59836;52.132;5.442;2023-12-04T09:11:02;100828.84;;;1.67;93.82
71966;BME280;59836;52.132;5.442;2023-12-04T09:13:47;100827.81;;;1.68;94.26
71966;BME280;59836;52.132;5.442;2023-12-04T09:16:14;100825.56;;;1.72;94.26
71966;BME280;59836;52.132;5.442;2023-12-04T09:18:40;100828.00;;;1.73;94.84
71966;BME280;59836;52.132;5.442;2023-12-04T09:21:07;100829.66;;;1.74;94.32
71966;BME280;59836;52.132;5.442;2023-12-04T09:23:35;100830.88;;;1.79;94.61
71966;BME280;59836;52.132;5.442;2023-12-04T09:26:01;100829.84;;;1.80;93.71
71966;BME280;59836;52.132;5.442;2023-12-04T09:28:28;100822.66;;;1.80;94.01
71966;BME280;59836;52.132;5.442;2023-12-04T09:30:55;100821.00;;;1.79;93.28
71966;BME280;59836;52.132;5.442;2023-12-04T09:33:21;100822.44;;;1.82;93.22
71966;BME280;59836;52.132;5.442;2023-12-04T09:35:48;100822.22;;;1.83;92.42
71966;BME280;59836;52.132;5.442;2023-12-04T09:38:14;100827.16;;;1.86;92.60
71966;BME280;59836;52.132;5.442;2023-12-04T09:40:41;100827.34;;;1.85;92.05
71966;BME280;59836;52.132;5.442;2023-12-04T09:43:08;100819.31;;;1.85;91.99
71966;BME280;59836;52.132;5.442;2023-12-04T09:45:34;100818.28;;;1.86;91.65
71966;BME280;59836;52.132;5.442;2023-12-04T09:48:02;100821.38;;;1.89;91.69
71966;BME280;59836;52.132;5.442;2023-12-04T09:50:29;100822.19;;;1.90;91.43
71966;BME280;59836;52.132;5.442;2023-12-04T09:52:58;100814.78;;;1.92;91.57
71966;BME280;59836;52.132;5.442;2023-12-04T09:55:26;100815.19;;;1.96;91.46
71966;BME280;59836;52.132;5.442;2023-12-04T09:57:52;100809.84;;;1.96;91.22
71966;BME280;59836;52.132;5.442;2023-12-04T10:00:21;100811.25;;;1.98;90.85
71966;BME280;59836;52.132;5.442;2023-12-04T10:02:48;100805.91;;;1.98;90.96
71966;BME280;59836;52.132;5.442;2023-12-04T10:05:15;100800.34;;;2.00;90.80
71966;BME280;59836;52.132;5.442;2023-12-04T10:07:41;100807.53;;;1.99;90.83
71966;BME280;59836;52.132;5.442;2023-12-04T10:10:08;100801.16;;;2.00;90.30
71966;BME280;59836;52.132;5.442;2023-12-04T10:12:35;100798.28;;;2.02;89.80
71966;BME280;59836;52.132;5.442;2023-12-04T10:15:04;100791.69;;;2.04;90.18
71966;BME280;59836;52.132;5.442;2023-12-04T10:17:38;100794.16;;;2.06;90.01
71966;BME280;59836;52.132;5.442;2023-12-04T10:20:07;100784.88;;;2.09;90.21
71966;BME280;59836;52.132;5.442;2023-12-04T10:22:39;100776.63;;;2.10;90.05
71966;BME280;59836;52.132;5.442;2023-12-04T10:25:16;100773.50;;;2.13;90.18
71966;BME280;59836;52.132;5.442;2023-12-04T10:27:45;100779.25;;;2.17;90.20
71966;BME280;59836;52.132;5.442;2023-12-04T10:30:26;100765.47;;;2.20;90.33
71966;BME280;59836;52.132;5.442;2023-12-04T10:33:04;100761.75;;;2.21;89.96
71966;BME280;59836;52.132;5.442;2023-12-04T10:35:32;100766.06;;;2.22;89.42
71966;BME280;59836;52.132;5.442;2023-12-04T10:37:59;100758.03;;;2.22;89.16
71966;BME280;59836;52.132;5.442;2023-12-04T10:40:27;100754.94;;;2.25;89.31
71966;BME280;59836;52.132;5.442;2023-12-04T10:43:09;100748.75;;;2.25;89.22
71966;BME280;59836;52.132;5.442;2023-12-04T10:45:38;100745.03;;;2.26;88.94
71966;BME280;59836;52.132;5.442;2023-12-04T10:48:06;100741.31;;;2.27;88.76
71966;BME280;59836;52.132;5.442;2023-12-04T10:50:34;100737.59;;;2.28;88.92
71966;BME280;59836;52.132;5.442;2023-12-04T10:53:02;100741.72;;;2.30;88.52
71966;BME280;59836;52.132;5.442;2023-12-04T10:55:31;100725.66;;;2.30;88.32
71966;BME280;59836;52.132;5.442;2023-12-04T10:57:59;100728.09;;;2.32;88.38
71966;BME280;59836;52.132;5.442;2023-12-04T11:00:27;100727.91;;;2.33;88.48
71966;BME280;59836;52.132;5.442;2023-12-04T11:02:55;100721.50;;;2.34;88.38
71966;BME280;59836;52.132;5.442;2023-12-04T11:05:23;100717.81;;;2.35;89.13
71966;BME280;59836;52.132;5.442;2023-12-04T11:07:51;100701.75;;;2.35;88.47
71966;BME280;59836;52.132;5.442;2023-12-04T11:13:26;100695.78;;;2.33;88.19
71966;BME280;59836;52.132;5.442;2023-12-04T11:16:00;100690.19;;;2.35;88.99
71966;BME280;59836;52.132;5.442;2023-12-04T11:18:31;100687.31;;;2.36;88.58
71966;BME280;59836;52.132;5.442;2023-12-04T11:21:02;100686.50;;;2.36;88.75
71966;BME280;59836;52.132;5.442;2023-12-04T11:23:31;100677.22;;;2.39;89.02
71966;BME280;59836;52.132;5.442;2023-12-04T11:25:58;100672.47;;;2.41;88.81
71966;BME280;59836;52.132;5.442;2023-12-04T11:28:27;100665.47;;;2.40;89.11
71966;BME280;59836;52.132;5.442;2023-12-04T11:30:55;100664.44;;;2.41;89.28
71966;BME280;59836;52.132;5.442;2023-12-04T11:33:21;100663.41;;;2.42;89.47
71966;BME280;59836;52.132;5.442;2023-12-04T11:35:50;100653.50;;;2.42;89.54
71966;BME280;59836;52.132;5.442;2023-12-04T11:38:17;100656.78;;;2.44;89.06
71966;BME280;59836;52.132;5.442;2023-12-04T11:40:46;100659.69;;;2.43;88.63
71966;BME280;59836;52.132;5.442;2023-12-04T11:43:26;100644.44;;;2.43;89.00
71966;BME280;59836;52.132;5.442;2023-12-04T11:46:07;100652.25;;;2.45;89.48
71966;BME280;59836;52.132;5.442;2023-12-04T11:48:33;100651.41;;;2.44;88.62
71966;BME280;59836;52.132;5.442;2023-12-04T11:51:00;100657.00;;;2.43;88.86
71966;BME280;59836;52.132;5.442;2023-12-04T11:53:27;100648.75;;;2.44;88.69
71966;BME280;59836;52.132;5.442;2023-12-04T11:55:55;100641.75;;;2.43;88.79
71966;BME280;59836;52.132;5.442;2023-12-04T11:58:23;100634.56;;;2.44;88.87
71966;BME280;59836;52.132;5.442;2023-12-04T12:00:50;100636.19;;;2.45;88.77
71966;BME280;59836;52.132;5.442;2023-12-04T12:03:20;100635.78;;;2.41;88.37
71966;BME280;59836;52.132;5.442;2023-12-04T12:05:49;100633.34;;;2.40;88.26
71966;BME280;59836;52.132;5.442;2023-12-04T12:08:19;100629.63;;;2.41;87.95
71966;BME280;59836;52.132;5.442;2023-12-04T12:10:46;100628.81;;;2.40;88.65
71966;BME280;59836;52.132;5.442;2023-12-04T12:13:13;100615.66;;;2.39;87.87
71966;BME280;59836;52.132;5.442;2023-12-04T12:15:41;100618.34;;;2.39;88.50
71966;BME280;59836;52.132;5.442;2023-12-04T12:18:07;100615.22;;;2.42;89.03
71966;BME280;59836;52.132;5.442;2023-12-04T12:20:36;100617.66;;;2.43;89.13
71966;BME280;59836;52.132;5.442;2023-12-04T12:23:03;100613.16;;;2.44;89.37
71966;BME280;59836;52.132;5.442;2023-12-04T12:25:29;100610.03;;;2.47;89.13
71966;BME280;59836;52.132;5.442;2023-12-04T12:27:56;100608.97;;;2.48;89.13
71966;BME280;59836;52.132;5.442;2023-12-04T12:30:23;100607.34;;;2.47;88.86
71966;BME280;59836;52.132;5.442;2023-12-04T12:32:50;100600.34;;;2.46;88.87
71966;BME280;59836;52.132;5.442;2023-12-04T12:35:17;100602.81;;;2.47;89.06
71966;BME280;59836;52.132;5.442;2023-12-04T12:37:43;100598.03;;;2.49;88.89
71966;BME280;59836;52.132;5.442;2023-12-04T12:40:10;100596.19;;;2.50;88.95
71966;BME280;59836;52.132;5.442;2023-12-04T12:42:37;100590.41;;;2.53;89.28
71966;BME280;59836;52.132;5.442;2023-12-04T12:45:13;100585.84;;;2.54;89.43
71966;BME280;59836;52.132;5.442;2023-12-04T12:47:41;100586.88;;;2.53;88.88
71966;BME280;59836;52.132;5.442;2023-12-04T12:50:09;100578.84;;;2.53;89.19
71966;BME280;59836;52.132;5.442;2023-12-04T12:52:37;100575.97;;;2.54;89.24
71966;BME280;59836;52.132;5.442;2023-12-04T12:55:04;100563.03;;;2.51;88.74
71966;BME280;59836;52.132;5.442;2023-12-04T12:57:32;100560.34;;;2.51;88.46
71966;BME280;59836;52.132;5.442;2023-12-04T12:59:58;100549.66;;;2.51;88.42